sensor_id;sensor_type;location;lat;lon;timestamp;temperature;humidity
44731;DHT22;30458;47.448;19.032;2022-07-17T00:01:45;23.90;58.20
44731;DHT22;30458;47.448;19.032;2022-07-17T00:11:46;23.80;58.30
44731;DHT22;30458;47.448;19.032;2022-07-17T00:21:47;23.70;58.50
44731;DHT22;30458;47.448;19.032;2022-07-17T00:31:49;23.60;58.60
44731;DHT22;30458;47.448;19.032;2022-07-17T00:41:52;23.60;58.80
44731;DHT22;30458;47.448;19.032;2022-07-17T00:51:53;23.50;59.00
44731;DHT22;30458;47.448;19.032;2022-07-17T01:01:58;23.50;59.40
44731;DHT22;30458;47.448;19.032;2022-07-17T01:12:02;23.40;59.80
44731;DHT22;30458;47.448;19.032;2022-07-17T01:22:03;23.30;60.10
44731;DHT22;30458;47.448;19.032;2022-07-17T01:32:04;23.10;60.90
44731;DHT22;30458;47.448;19.032;2022-07-17T01:42:09;23.00;61.30
44731;DHT22;30458;47.448;19.032;2022-07-17T01:52:10;22.80;61.10
44731;DHT22;30458;47.448;19.032;2022-07-17T02:02:14;22.50;61.60
44731;DHT22;30458;47.448;19.032;2022-07-17T02:12:20;22.30;62.40
44731;DHT22;30458;47.448;19.032;2022-07-17T02:22:21;22.20;62.90
44731;DHT22;30458;47.448;19.032;2022-07-17T02:32:22;22.00;63.80
44731;DHT22;30458;47.448;19.032;2022-07-17T02:42:25;21.80;64.10
44731;DHT22;30458;47.448;19.032;2022-07-17T02:52:26;21.80;63.80
44731;DHT22;30458;47.448;19.032;2022-07-17T03:02:29;21.70;64.40
44731;DHT22;30458;47.448;19.032;2022-07-17T03:12:30;21.50;64.40
44731;DHT22;30458;47.448;19.032;2022-07-17T03:22:36;21.40;64.50
44731;DHT22;30458;47.448;19.032;2022-07-17T03:32:45;21.10;65.10
44731;DHT22;30458;47.448;19.032;2022-07-17T03:42:46;21.30;64.80
44731;DHT22;30458;47.448;19.032;2022-07-17T03:52:50;21.10;65.30
44731;DHT22;30458;47.448;19.032;2022-07-17T04:02:54;21.60;64.50
44731;DHT22;30458;47.448;19.032;2022-07-17T04:12:54;21.90;64.10
44731;DHT22;30458;47.448;19.032;2022-07-17T04:22:55;22.10;63.40
44731;DHT22;30458;47.448;19.032;2022-07-17T04:32:56;22.60;62.80
44731;DHT22;30458;47.448;19.032;2022-07-17T04:43:03;23.00;62.30
44731;DHT22;30458;47.448;19.032;2022-07-17T04:53:06;23.60;61.40
44731;DHT22;30458;47.448;19.032;2022-07-17T05:03:07;24.00;61.00
44731;DHT22;30458;47.448;19.032;2022-07-17T05:13:08;24.50;60.40
44731;DHT22;30458;47.448;19.032;2022-07-17T05:23:12;24.70;59.50
44731;DHT22;30458;47.448;19.032;2022-07-17T05:33:15;24.70;59.40
44731;DHT22;30458;47.448;19.032;2022-07-17T05:43:16;25.50;58.90
44731;DHT22;30458;47.448;19.032;2022-07-17T05:53:19;26.20;53.30
44731;DHT22;30458;47.448;19.032;2022-07-17T06:03:22;27.00;52.30
44731;DHT22;30458;47.448;19.032;2022-07-17T06:13:23;27.40;51.30
44731;DHT22;30458;47.448;19.032;2022-07-17T06:23:26;28.30;50.90
44731;DHT22;30458;47.448;19.032;2022-07-17T06:33:29;29.10;49.30
44731;DHT22;30458;47.448;19.032;2022-07-17T06:43:32;29.20;47.90
44731;DHT22;30458;47.448;19.032;2022-07-17T06:53:33;29.30;48.10
44731;DHT22;30458;47.448;19.032;2022-07-17T07:03:34;29.90;47.30
44731;DHT22;30458;47.448;19.032;2022-07-17T07:13:35;29.70;47.20
44731;DHT22;30458;47.448;19.032;2022-07-17T07:23:43;28.70;47.30
44731;DHT22;30458;47.448;19.032;2022-07-17T07:33:49;28.10;48.80
44731;DHT22;30458;47.448;19.032;2022-07-17T07:43:57;27.60;48.70
44731;DHT22;30458;47.448;19.032;2022-07-17T07:54:00;27.40;49.80
44731;DHT22;30458;47.448;19.032;2022-07-17T08:04:02;27.10;49.80
44731;DHT22;30458;47.448;19.032;2022-07-17T08:14:03;27.00;50.20
44731;DHT22;30458;47.448;19.032;2022-07-17T08:24:04;27.10;49.00
44731;DHT22;30458;47.448;19.032;2022-07-17T08:34:05;27.00;49.80
44731;DHT22;30458;47.448;19.032;2022-07-17T08:44:08;26.90;49.70
44731;DHT22;30458;47.448;19.032;2022-07-17T08:54:09;27.00;49.20
44731;DHT22;30458;47.448;19.032;2022-07-17T09:04:13;26.80;49.40
44731;DHT22;30458;47.448;19.032;2022-07-17T09:14:18;26.60;49.00
44731;DHT22;30458;47.448;19.032;2022-07-17T09:24:21;26.50;49.90
44731;DHT22;30458;47.448;19.032;2022-07-17T09:34:24;26.50;49.90
44731;DHT22;30458;47.448;19.032;2022-07-17T09:44:25;26.50;50.20
44731;DHT22;30458;47.448;19.032;2022-07-17T09:54:29;26.60;50.20
44731;DHT22;30458;47.448;19.032;2022-07-17T10:04:31;26.40;49.50
44731;DHT22;30458;47.448;19.032;2022-07-17T10:14:34;26.50;49.80
44731;DHT22;30458;47.448;19.032;2022-07-17T10:24:53;26.30;50.50
44731;DHT22;30458;47.448;19.032;2022-07-17T10:34:59;26.30;50.30
44731;DHT22;30458;47.448;19.032;2022-07-17T10:55:21;26.20;50.80
44731;DHT22;30458;47.448;19.032;2022-07-17T11:05:24;26.10;50.30
44731;DHT22;30458;47.448;19.032;2022-07-17T11:15:25;26.10;48.90
44731;DHT22;30458;47.448;19.032;2022-07-17T11:25:28;26.00;48.90
44731;DHT22;30458;47.448;19.032;2022-07-17T11:35:30;26.00;47.80
44731;DHT22;30458;47.448;19.032;2022-07-17T11:45:33;26.10;48.60
44731;DHT22;30458;47.448;19.032;2022-07-17T11:55:41;26.10;47.40
44731;DHT22;30458;47.448;19.032;2022-07-17T12:05:42;26.10;46.10
44731;DHT22;30458;47.448;19.032;2022-07-17T12:15:46;26.20;47.60
44731;DHT22;30458;47.448;19.032;2022-07-17T12:25:48;26.30;46.80
44731;DHT22;30458;47.448;19.032;2022-07-17T12:35:48;26.30;47.30
44731;DHT22;30458;47.448;19.032;2022-07-17T12:45:54;26.40;46.70
44731;DHT22;30458;47.448;19.032;2022-07-17T12:55:59;26.30;46.40
44731;DHT22;30458;47.448;19.032;2022-07-17T13:06:02;26.40;46.80
44731;DHT22;30458;47.448;19.032;2022-07-17T13:16:03;26.40;46.40
44731;DHT22;30458;47.448;19.032;2022-07-17T13:26:05;26.40;44.60
44731;DHT22;30458;47.448;19.032;2022-07-17T13:36:10;26.40;44.10
44731;DHT22;30458;47.448;19.032;2022-07-17T13:46:14;26.50;44.40
44731;DHT22;30458;47.448;19.032;2022-07-17T13:56:15;26.60;45.00
44731;DHT22;30458;47.448;19.032;2022-07-17T14:06:16;26.90;43.50
44731;DHT22;30458;47.448;19.032;2022-07-17T14:16:17;26.80;42.80
44731;DHT22;30458;47.448;19.032;2022-07-17T14:26:18;26.70;43.20
44731;DHT22;30458;47.448;19.032;2022-07-17T14:36:19;26.70;42.70
44731;DHT22;30458;47.448;19.032;2022-07-17T14:46:19;26.70;42.40
44731;DHT22;30458;47.448;19.032;2022-07-17T14:56:23;26.70;42.60
44731;DHT22;30458;47.448;19.032;2022-07-17T15:06:24;26.70;42.00
44731;DHT22;30458;47.448;19.032;2022-07-17T15:16:27;26.80;42.40
44731;DHT22;30458;47.448;19.032;2022-07-17T15:26:30;26.90;43.10
44731;DHT22;30458;47.448;19.032;2022-07-17T15:36:33;26.80;43.10
44731;DHT22;30458;47.448;19.032;2022-07-17T15:46:37;26.70;43.10
44731;DHT22;30458;47.448;19.032;2022-07-17T15:56:37;26.60;44.40
44731;DHT22;30458;47.448;19.032;2022-07-17T16:06:40;26.60;45.10
44731;DHT22;30458;47.448;19.032;2022-07-17T16:16:45;26.70;45.10
44731;DHT22;30458;47.448;19.032;2022-07-17T16:26:46;26.90;45.90
44731;DHT22;30458;47.448;19.032;2022-07-17T16:36:50;26.90;45.50
44731;DHT22;30458;47.448;19.032;2022-07-17T16:46:55;26.70;45.70
44731;DHT22;30458;47.448;19.032;2022-07-17T16:56:59;26.60;45.00
44731;DHT22;30458;47.448;19.032;2022-07-17T17:07:00;26.40;45.40
44731;DHT22;30458;47.448;19.032;2022-07-17T17:17:01;26.20;45.40
44731;DHT22;30458;47.448;19.032;2022-07-17T17:27:02;26.30;46.30
44731;DHT22;30458;47.448;19.032;2022-07-17T17:37:03;26.10;46.30
44731;DHT22;30458;47.448;19.032;2022-07-17T17:47:04;26.00;45.90
44731;DHT22;30458;47.448;19.032;2022-07-17T17:57:05;26.00;46.30
44731;DHT22;30458;47.448;19.032;2022-07-17T18:07:08;25.80;46.30
44731;DHT22;30458;47.448;19.032;2022-07-17T18:17:09;25.60;47.90
44731;DHT22;30458;47.448;19.032;2022-07-17T18:27:13;25.50;48.30
44731;DHT22;30458;47.448;19.032;2022-07-17T18:37:13;25.40;48.90
44731;DHT22;30458;47.448;19.032;2022-07-17T18:47:14;25.10;49.70
44731;DHT22;30458;47.448;19.032;2022-07-17T18:57:15;24.90;50.20
44731;DHT22;30458;47.448;19.032;2022-07-17T19:07:16;24.70;51.10
44731;DHT22;30458;47.448;19.032;2022-07-17T19:17:22;24.60;50.70
44731;DHT22;30458;47.448;19.032;2022-07-17T19:27:23;24.60;50.70
44731;DHT22;30458;47.448;19.032;2022-07-17T19:37:24;24.50;50.00
44731;DHT22;30458;47.448;19.032;2022-07-17T19:47:25;24.30;49.30
44731;DHT22;30458;47.448;19.032;2022-07-17T19:57:28;24.20;49.20
44731;DHT22;30458;47.448;19.032;2022-07-17T20:07:28;24.20;49.60
44731;DHT22;30458;47.448;19.032;2022-07-17T20:17:32;24.20;49.70
44731;DHT22;30458;47.448;19.032;2022-07-17T20:27:33;24.10;50.10
44731;DHT22;30458;47.448;19.032;2022-07-17T20:37:34;24.10;50.50
44731;DHT22;30458;47.448;19.032;2022-07-17T20:47:34;23.90;51.30
44731;DHT22;30458;47.448;19.032;2022-07-17T20:57:37;23.90;51.80
44731;DHT22;30458;47.448;19.032;2022-07-17T21:07:41;23.90;52.10
44731;DHT22;30458;47.448;19.032;2022-07-17T21:17:42;23.70;52.20
44731;DHT22;30458;47.448;19.032;2022-07-17T21:27:44;23.50;52.90
44731;DHT22;30458;47.448;19.032;2022-07-17T21:37:45;23.40;53.40
44731;DHT22;30458;47.448;19.032;2022-07-17T21:47:48;23.30;54.20
44731;DHT22;30458;47.448;19.032;2022-07-17T21:57:51;23.40;54.50
44731;DHT22;30458;47.448;19.032;2022-07-17T22:07:52;23.40;54.40
44731;DHT22;30458;47.448;19.032;2022-07-17T22:17:53;23.20;54.40
44731;DHT22;30458;47.448;19.032;2022-07-17T22:27:54;23.10;54.50
44731;DHT22;30458;47.448;19.032;2022-07-17T22:37:58;23.00;54.80
44731;DHT22;30458;47.448;19.032;2022-07-17T22:47:59;22.70;55.60
44731;DHT22;30458;47.448;19.032;2022-07-17T22:58:00;22.60;57.30
44731;DHT22;30458;47.448;19.032;2022-07-17T23:08:03;22.50;58.10
44731;DHT22;30458;47.448;19.032;2022-07-17T23:18:06;22.30;59.00
44731;DHT22;30458;47.448;19.032;2022-07-17T23:28:07;22.20;59.00
44731;DHT22;30458;47.448;19.032;2022-07-17T23:38:10;22.00;59.90
44731;DHT22;30458;47.448;19.032;2022-07-17T23:48:11;21.80;60.70
44731;DHT22;30458;47.448;19.032;2022-07-17T23:58:15;21.70;60.10
